Latest Coastal Weather Observations for Wilsons Promontory

IDT60701

Issued at 7:05 am EDT Wednesday 22 October 2014 (issued every 10 minutes, with the page automatically refreshed every 10 minutes)

About coastal observations | Map of coastal stations | Coastal observations for TAS | Marine services | Other Formats
Station Details ID: 085096 Name: WILSONS PROMONTORY LIGHTHOUSE Lat: -39.13 Lon: 146.42 Height: 95.0 m
Data from the previous 72 hours. | See also: Recent months at Wilsons Promontory
Date/Time
EDT
Temp

°C
Wind Pressure Rain
since 9am
mm
Weather Cloud Vis
km
Sea
Height
m
Swell
Dir
 
Speed
knots
Gust
knots
hPa Trend Height
m
Period
s
Dir
22/07:00am 13.5 NNE 15 17 1019.5 - 0.0 - - - - - - -
22/06:30am 13.2 NNE 16 18 1019.6 - 0.0 - - - - - - -
22/06:00am 13.1 NNE 18 20 1019.5 - 0.0 - - - - - - -
22/05:30am 13.1 NNE 18 21 1019.4 - 0.0 - - - - - - -
22/05:00am 13.1 NNE 19 21 1019.6 - 0.0 - - - - - - -
22/04:30am 13.0 NNE 20 22 1019.8 - 0.0 - - - - - - -
22/04:00am 13.0 NNE 19 23 1020.2 - 0.0 - - - - - - -
22/03:30am 13.1 NNE 18 24 1020.5 - 0.0 - - - - - - -
22/03:00am 13.1 NNE 18 23 1021.1 - 0.0 - - - - - - -
22/02:30am 13.1 NNE 18 23 1021.4 - 0.0 - - - - - - -
22/02:00am 13.2 NNE 19 25 1022.0 - 0.0 - - - - - - -
22/01:30am 13.2 NNE 19 27 1022.4 - 0.0 - - - - - - -
22/01:00am 13.2 NNE 18 23 1023.1 - 0.0 - - - - - - -
22/12:30am 13.3 NNE 19 24 1023.6 - 0.0 - - - - - - -
22/12:00am 13.3 NNE 19 25 1024.0 - 0.0 - - - - - - -
 
Date/Time
EDT
Temp

°C
Wind Pressure Rain
since 9am
mm
Weather Cloud Vis
km
Sea
Height
m
Swell
Dir
 
Speed
knots
Gust
knots
hPa Trend Height
m
Period
s
Dir
21/11:30pm 13.3 NNE 19 25 1024.3 - 0.0 - - - - - - -
21/11:00pm 13.3 NNE 18 24 1024.7 - 0.0 - - - - - - -
21/10:30pm 13.3 NNE 19 25 1024.9 - 0.0 - - - - - - -
21/10:00pm 13.3 NNE 21 25 1025.2 - 0.0 - - - - - - -
21/09:30pm 13.5 NE 23 28 1025.3 - 0.0 - - - - - - -
21/09:00pm 13.5 NE 25 30 1025.4 - 0.0 - - - - - - -
21/08:30pm 13.5 NE 25 30 1025.3 - 0.0 - - - - - - -
21/08:00pm 13.5 NE 24 28 1025.4 - 0.0 - - - - - - -
21/07:30pm 13.6 NE 26 31 1025.3 - 0.0 - - - - - - -
21/07:00pm 13.6 NE 27 32 1025.1 - 0.0 - - - - - - -
21/06:30pm 13.7 NE 28 33 1025.2 - 0.0 - - - - - - -
21/06:00pm 13.8 ENE 27 32 1025.5 - 0.0 - - - - - - -
21/05:30pm 13.8 NE 27 31 1025.6 - 0.0 - - - - - - -
21/05:00pm 14.0 NE 25 29 1026.0 - 0.0 - - - - - - -
21/04:30pm 14.2 NE 27 30 1026.3 - 0.0 - - - - - - -
21/04:00pm 14.3 NE 23 28 1026.8 - 0.0 - - - - - - -
21/03:30pm 14.5 NE 25 30 1027.1 - 0.0 - - - - - - -
21/03:00pm 14.5 NE 26 31 1027.2 - 0.0 - - - - - - -
21/02:30pm 14.7 NE 27 31 1027.5 - 0.0 - - - - - - -
21/02:00pm 14.8 NE 24 29 1028.3 - 0.0 - - - - - - -
21/01:30pm 15.1 NE 25 33 1028.6 - 0.0 - - - - - - -
21/01:00pm 15.2 NE 26 31 1028.8 - 0.0 - - - - - - -
21/12:30pm 15.0 NE 25 30 1028.9 - 0.0 - - - - - - -
21/12:00pm 15.0 NE 26 32 1028.9 - 0.0 - - - - - - -
21/11:30am 15.2 NE 29 35 1029.0 - 0.0 - - - - - - -
21/11:00am 14.9 NE 31 37 1029.0 - 0.0 - - - - - - -
21/10:30am 14.8 NE 32 38 1029.2 - 0.0 - - - - - - -
21/10:00am 14.6 NE 34 40 1028.8 - 0.0 - - - - - - -
21/09:30am 14.6 NE 32 39 1029.0 - 0.0 - - - - - - -
21/09:00am 14.5 NE 33 39 1028.8 - 0.0 - - - - - - -
21/08:30am 14.3 NE 35 43 1028.4 - 0.0 - - - - - - -
21/08:00am 13.9 NE 34 40 1028.1 - 0.0 - - - - - - -
21/07:30am 13.7 NE 36 43 1027.7 - 0.0 - - - - - - -
21/07:00am 13.3 NE 36 44 1027.6 - 0.0 - - - - - - -
21/06:30am 13.0 NE 37 44 1027.3 - 0.0 - - - - - - -
21/06:00am 13.1 NE 37 44 1027.0 - 0.0 - - - - - - -
21/05:30am 12.9 NE 40 46 1026.7 - 0.0 - - - - - - -
21/05:00am 12.8 ENE 38 44 1026.9 - 0.0 - - - - - - -
21/04:30am 12.7 NE 38 43 1026.9 - 0.0 - - - - - - -
21/04:00am 12.6 NE 38 43 1027.1 - 0.0 - - - - - - -
21/03:30am 12.6 ENE 37 44 1027.7 - 0.0 - - - - - - -
21/03:00am 12.5 ENE 36 43 1028.2 - 0.0 - - - - - - -
21/02:30am 12.5 ENE 37 43 1028.3 - 0.0 - - - - - - -
21/02:00am 12.5 ENE 39 45 1028.5 - 0.0 - - - - - - -
21/01:30am 12.4 NE 37 42 1029.0 - 0.0 - - - - - - -
21/01:00am 12.4 ENE 36 42 1029.5 - 0.0 - - - - - - -
21/12:30am 12.3 ENE 35 41 1030.0 - 0.0 - - - - - - -
21/12:00am 12.2 ENE 35 39 1030.3 - 0.0 - - - - - - -
 
Date/Time
EDT
Temp

°C
Wind Pressure Rain
since 9am
mm
Weather Cloud Vis
km
Sea
Height
m
Swell
Dir
 
Speed
knots
Gust
knots
hPa Trend Height
m
Period
s
Dir
20/11:30pm 12.3 ENE 35 40 1030.7 - 0.0 - - - - - - -
20/11:00pm 12.3 ENE 36 40 1030.7 - 0.0 - - - - - - -
20/10:30pm 12.2 ENE 34 38 1030.8 - 0.0 - - - - - - -
20/10:00pm 12.2 ENE 34 39 1030.8 - 0.0 - - - - - - -
20/09:30pm 12.3 ENE 34 39 1030.7 - 0.0 - - - - - - -
20/09:00pm 12.2 ENE 33 38 1030.7 - 0.0 - - - - - - -
20/08:30pm 12.2 ENE 31 36 1030.6 - 0.0 - - - - - - -
20/08:00pm 12.2 ENE 33 37 1030.3 - 0.0 - - - - - - -
20/07:30pm 12.1 ENE 32 37 1030.4 - 0.0 - - - - - - -
20/07:00pm 12.1 ENE 30 35 1030.6 - 0.0 - - - - - - -
20/06:30pm 12.1 ENE 31 35 1030.3 - 0.0 - - - - - - -
20/06:00pm 12.1 ENE 29 33 1030.4 - 0.0 - - - - - - -
20/05:30pm 12.1 E 29 33 1030.4 - 0.0 - - - - - - -
20/05:00pm 12.3 E 29 33 1030.3 - 0.0 - - - - - - -
20/04:30pm 12.1 E 31 34 1030.2 - 0.0 - - - - - - -
20/04:00pm 12.1 E 30 34 1030.3 - 0.0 - - - - - - -
20/03:30pm 12.2 ENE 29 33 1030.6 - 0.0 - - - - - - -
20/03:00pm 12.0 E 27 31 1030.9 - 0.0 - - - - - - -
20/02:30pm 12.1 E 26 30 1031.2 - 0.0 - - - - - - -
20/02:00pm 12.2 E 26 31 1031.1 - 0.0 - - - - - - -
20/01:30pm 12.1 E 26 29 1031.4 - 0.0 - - - - - - -
20/01:00pm 12.0 ENE 26 30 1031.4 - 0.0 - - - - - - -
20/12:30pm 11.8 E 25 28 1031.7 - 0.0 - - - - - - -
20/12:00pm 12.0 E 24 27 1031.8 - 0.0 - - - - - - -
20/11:30am 11.7 E 23 27 1032.0 - 0.0 - - - - - - -
20/11:00am 12.0 E 23 28 1032.2 - 0.0 - - - - - - -
20/10:30am 12.9 E 22 27 1032.1 - 0.0 - - - - - - -
20/10:00am 13.1 E 18 22 1032.1 - 0.0 - - - - - - -
20/09:30am 12.3 E 18 20 1031.9 - 0.0 - - - - - - -
20/09:00am 12.2 E 18 21 1031.7 - 0.0 - - - - - - -
20/08:30am 11.8 E 18 21 1031.4 - 0.0 - - - - - - -
20/08:00am 11.4 E 16 21 1031.2 - 0.0 - - - - - - -
20/07:30am 11.1 ESE 13 16 1030.9 - 0.0 - - - - - - -
20/07:00am 10.9 ESE 13 17 1030.5 - 0.0 - - - - - - -
20/06:30am 10.7 ESE 12 16 1030.2 - 0.0 - - - - - - -
20/06:00am 10.7 SE 14 18 1029.8 - 0.0 - - - - - - -
20/05:30am 10.7 SE 14 18 1029.8 - 0.0 - - - - - - -
20/05:00am 10.6 SSE 15 19 1029.4 - 0.0 - - - - - - -
20/04:30am 10.6 S 14 22 1028.8 - 0.0 - - - - - - -
20/04:00am 10.6 S 12 19 1028.7 - 0.0 - - - - - - -
20/03:30am 10.5 S 9 14 1028.9 - 0.0 - - - - - - -
20/03:00am 10.6 N 9 22 1028.5 - 0.0 - - - - - - -
20/02:30am 10.8 SW 15 23 1028.3 - 0.0 - - - - - - -
20/02:00am 10.9 SSW 19 32 1027.7 - 0.0 - - - - - - -
20/01:36am 11.0 SW 15 25 1027.8 - 0.0 - - - - - - -
20/01:30am 11.0 SSW 19 25 1027.5 - 0.0 - - - - - - -
20/01:01am 11.0 SW 15 29 1027.3 - 0.0 - - - - - - -
20/01:00am 11.1 SW 14 29 1027.4 - 0.0 - - - - - - -
20/12:30am 11.1 SW 21 34 1026.8 - 0.0 - - - - - - -
20/12:13am 11.3 SW 22 33 1026.6 - 0.0 - - - - - - -
20/12:11am 11.4 W 12 36 1026.5 - 0.0 - - - - - - -
20/12:00am 11.3 SW 26 38 1026.2 - 0.0 - - - - - - -
 
Date/Time
EDT
Temp

°C
Wind Pressure Rain
since 9am
mm
Weather Cloud Vis
km
Sea
Height
m
Swell
Dir
 
Speed
knots
Gust
knots
hPa Trend Height
m
Period
s
Dir
19/11:30pm 11.5 SW 27 38 1025.8 - 0.0 - - - - - - -
19/11:29pm 11.7 SW 25 38 1025.8 - 0.0 - - - - - - -
19/11:25pm 11.6 SW 25 39 1025.7 - 0.0 - - - - - - -
19/11:24pm 11.6 ESE 19 39 1025.6 - 0.0 - - - - - - -
19/11:23pm 11.5 E 16 39 1025.5 - 0.0 - - - - - - -
19/11:08pm 11.7 SW 23 43 1025.4 - 0.0 - - - - - - -
19/11:05pm 11.6 SW 21 43 1025.3 - 0.0 - - - - - - -
19/11:04pm 11.6 SW 33 43 1025.4 - 0.0 - - - - - - -
19/11:00pm 11.9 SW 36 43 1025.5 - 0.0 - - - - - - -
19/10:32pm 11.8 SW 36 46 1025.3 - 0.0 - - - - - - -
19/10:30pm 11.7 SW 37 46 1025.2 - 0.0 - - - - - - -
19/10:08pm 11.8 SW 34 44 1024.8 - 0.0 - - - - - - -
19/10:00pm 11.9 SW 35 42 1024.7 - 0.0 - - - - - - -
19/09:45pm 12.0 SW 35 45 1024.6 - 0.0 - - - - - - -
19/09:30pm 12.2 SW 32 39 1024.8 - 0.0 - - - - - - -
19/09:00pm 12.2 SW 34 39 1023.5 - 0.0 - - - - - - -
19/08:30pm 12.3 SW 26 37 1022.8 - 0.0 - - - - - - -
19/08:18pm 12.3 SSW 15 30 1022.1 - 0.0 - - - - - - -
19/08:11pm 12.3 SSE 13 37 1021.8 - 0.0 - - - - - - -
19/08:04pm 12.9 SW 21 39 1021.8 - 0.0 - - - - - - -
19/08:00pm 13.2 SW 35 41 1022.1 - 0.0 - - - - - - -
19/07:41pm 13.4 WSW 38 41 1021.1 - 0.0 - - - - - - -
19/07:33pm 13.3 WSW 28 38 1021.3 - 0.0 - - - - - - -
19/07:30pm 13.3 WSW 26 34 1021.4 - 0.0 - - - - - - -
19/07:00pm 13.4 WSW 31 38 1020.8 - 0.0 - - - - - - -
19/06:38pm 13.5 WSW 38 40 1020.1 - 0.0 - - - - - - -
19/06:30pm 13.9 WSW 26 35 1020.4 - 0.0 - - - - - - -
19/06:28pm 13.8 WSW 25 35 1020.4 - 0.0 - - - - - - -
19/06:00pm 14.6 W 21 27 1019.9 - 0.0 - - - - - - -
19/05:30pm 14.8 W 19 26 1019.7 - 0.0 - - - - - - -
19/05:00pm 14.4 W 18 26 1019.1 - 0.0 - - - - - - -
19/04:30pm 14.5 WSW 15 20 1018.6 - 0.0 - - - - - - -
19/04:00pm 14.8 WSW 14 19 1018.7 - 0.0 - - - - - - -
19/03:30pm 14.4 WSW 17 22 1018.8 - 0.0 - - - - - - -
19/03:00pm 15.2 WSW 17 21 1018.6 - 0.0 - - - - - - -
19/02:30pm 16.0 WSW 17 22 1018.4 - 0.0 - - - - - - -
19/02:00pm 15.8 WSW 21 23 1018.3 - 0.0 - - - - - - -
19/01:30pm 15.9 WSW 16 18 1018.3 - 0.0 - - - - - - -
19/01:00pm 15.5 WSW 20 24 1018.4 - 0.0 - - - - - - -
19/12:30pm 16.3 SW 19 22 1018.3 - 0.0 - - - - - - -
19/12:00pm 18.2 W 19 28 1018.4 - 0.0 - - - - - - -
19/11:49am 18.8 WSW 16 29 1018.3 - 0.0 - - - - - - -
19/11:30am 21.3 W 9 16 1018.4 - 0.0 - - - - - - -
19/11:00am 20.0 WSW 6 13 1018.7 - 0.0 - - - - - - -
19/10:30am 18.5 W 6 11 1019.1 - 0.0 - - - - - - -
19/10:00am 17.6 W 12 21 1019.3 - 0.0 - - - - - - -
19/09:37am 17.8 W 17 27 1019.1 - 0.0 - - - - - - -
19/09:00am 17.4 W 17 27 1019.1 - 0.0 - - - - - - -
19/08:59am 17.4 W 17 27 1019.1 - 0.0 - - - - - - -
19/08:30am 17.5 W 22 30 1019.1 - 0.0 - - - - - - -
19/08:05am 18.3 W 15 29 1018.9 - 0.0 - - - - - - -
19/08:00am 18.4 W 14 24 1019.0 - 0.0 - - - - - - -
19/07:52am 18.4 W 15 26 1018.9 - 0.0 - - - - - - -
19/07:30am 18.8 W 11 18 1018.7 - 0.0 - - - - - - -

Other Formats:

Comma delimited format used in spreadsheet applications
http://www.bom.gov.au/fwo/IDT60701/IDT60701.94893.axf

JavaScript Object Notation format (JSON) in row-major order
http://www.bom.gov.au/fwo/IDT60701/IDT60701.94893.json